Time;durP1;ratioP1;P1;durP2;ratioP2;P2;SDS_P1;SDS_P2;PMS_P1;PMS_P2;Temp;Humidity;BMP_temperature;BMP_pressure;BME280_temperature;BME280_humidity;BME280_pressure;Samples;Min_cycle;Max_cycle;Signal;HPM_P1;HPM_P2
2023/10/27 09:52:09;;;;;;;2.17;1.30;;;;;;;11.11;100.00;96664.69;5142011;27;20567;-82
2023/10/27 09:55:21;;;;;;;2.03;1.03;;;;;;;12.00;100.00;96677.72;5096892;27;39717;-89
2023/10/27 09:57:51;;;;;;;0.70;0.70;;;;;;;12.50;100.00;96648.59;5111611;27;42071;-88
2023/10/27 10:00:21;;;;;;;1.83;1.23;;;;;;;12.89;100.00;96674.56;5110991;27;42031;-89
2023/10/27 10:03:09;;;;;;;1.03;0.93;;;;;;;13.01;100.00;96659.97;5111336;27;41751;-86
2023/10/27 10:06:10;;;;;;;1.30;1.10;;;;;;;13.13;100.00;96640.06;5110404;27;38947;-89
2023/10/27 10:08:38;;;;;;;1.57;1.40;;;;;;;13.43;100.00;96682.97;5049806;28;42619;-88
2023/10/27 10:11:32;;;;;;;1.73;1.50;;;;;;;13.52;100.00;96692.59;5094073;27;43339;-85
2023/10/27 10:14:31;;;;;;;1.07;0.80;;;;;;;13.49;100.00;96676.97;5112157;27;41196;-85
2023/10/27 10:17:03;;;;;;;0.60;0.60;;;;;;;13.47;100.00;96694.94;5094521;27;39261;-86
2023/10/27 10:25:38;;;;;;;0.50;0.50;;;;;;;13.27;100.00;96687.25;5135259;27;42685;-84
2023/10/27 10:28:29;;;;;;;0.40;0.40;;;;;;;13.68;100.00;96703.22;5089680;27;41347;-87
2023/10/27 10:31:41;;;;;;;0.50;0.40;;;;;;;13.90;100.00;96717.66;5097314;27;42854;-86
2023/10/27 10:34:12;;;;;;;1.60;0.60;;;;;;;14.34;98.49;96705.56;5112984;27;41204;-86
2023/10/27 10:40:06;;;;;;;0.83;0.50;;;;;;;15.03;93.92;96705.78;5128676;27;39122;-87
2023/10/27 10:43:12;;;;;;;0.50;0.50;;;;;;;15.34;89.59;96751.03;5114750;27;40915;-85
2023/10/27 10:45:51;;;;;;;0.40;0.40;;;;;;;15.35;87.26;96734.88;5145761;27;42805;-87
2023/10/27 10:48:19;;;;;;;0.40;0.40;;;;;;;15.86;87.99;96739.69;5148632;27;43432;-87
2023/10/27 10:50:48;;;;;;;0.63;0.40;;;;;;;16.94;83.93;96751.53;5135060;27;40835;-85
2023/10/27 10:53:17;;;;;;;0.40;0.40;;;;;;;17.18;80.01;96774.47;5130525;27;43547;-86
2023/10/27 10:55:46;;;;;;;0.40;0.40;;;;;;;18.35;79.27;96772.31;5112960;27;43414;-87
2023/10/27 10:58:21;;;;;;;1.20;0.33;;;;;;;20.10;68.35;96809.22;5129771;27;43147;-86
2023/10/27 11:01:22;;;;;;;0.40;0.30;;;;;;;20.64;66.35;96759.78;5129244;27;40275;-88
2023/10/27 11:03:52;;;;;;;0.30;0.30;;;;;;;20.80;64.71;96818.50;5117238;27;42894;-88
2023/10/27 11:06:26;;;;;;;0.70;0.33;;;;;;;20.36;61.53;96801.19;5115739;27;41945;-86
2023/10/27 11:09:01;;;;;;;0.80;0.30;;;;;;;20.11;61.29;96786.69;5138226;27;41266;-89
2023/10/27 11:11:52;;;;;;;0.30;0.30;;;;;;;20.04;60.23;96842.25;5117340;27;40475;-90
2023/10/27 11:14:41;;;;;;;0.30;0.30;;;;;;;19.82;60.67;96835.41;5118019;27;41204;-91
2023/10/27 11:17:12;;;;;;;0.40;0.40;;;;;;;19.54;61.00;96839.03;5118074;27;42327;-88
2023/10/27 11:20:15;;;;;;;0.20;0.20;;;;;;;19.17;62.44;96810.78;5122616;27;42829;-88
2023/10/27 11:22:42;;;;;;;0.33;0.33;;;;;;;19.37;63.49;96800.13;5078676;28;40334;-85
2023/10/27 11:25:30;;;;;;;0.43;0.27;;;;;;;19.27;60.87;96818.47;5101403;27;43750;-86
2023/10/27 11:28:18;;;;;;;0.27;0.27;;;;;;;18.73;61.40;96827.25;5138608;27;43632;-87
2023/10/27 11:31:01;;;;;;;1.13;0.30;;;;;;;18.23;63.70;96829.13;5123483;27;41162;-86
2023/10/27 11:33:29;;;;;;;0.23;0.23;;;;;;;17.77;64.69;96825.19;5118029;27;40548;-89
2023/10/27 11:36:17;;;;;;;1.27;0.30;;;;;;;17.30;67.01;96804.25;5116663;27;40834;-86
2023/10/27 11:39:09;;;;;;;0.73;0.40;;;;;;;17.42;67.52;96840.19;5117500;27;43858;-86
2023/10/27 11:41:37;;;;;;;0.30;0.30;;;;;;;17.09;68.23;96796.97;5134611;27;42668;-87
2023/10/27 11:44:20;;;;;;;0.40;0.40;;;;;;;17.18;67.88;96833.31;5134098;27;38967;-88
2023/10/27 11:46:50;;;;;;;0.83;0.60;;;;;;;16.83;69.13;96806.31;5117247;27;40854;-86
2023/10/27 11:49:39;;;;;;;0.40;0.40;;;;;;;16.82;69.59;96822.53;5116151;27;43430;-88
2023/10/27 11:54:51;;;;;;;0.90;0.60;;;;;;;16.82;69.81;96851.94;5119161;27;40191;-89
2023/10/27 11:57:21;;;;;;;0.50;0.50;;;;;;;16.78;70.56;96859.50;5137318;27;42828;-87
2023/10/27 12:00:09;;;;;;;1.03;0.67;;;;;;;16.64;71.43;96788.16;5129844;27;42908;-88
2023/10/27 12:02:41;;;;;;;0.87;0.80;;;;;;;17.72;69.68;96860.53;5132902;27;41926;-89
2023/10/27 12:05:09;;;;;;;1.37;0.60;;;;;;;17.88;67.48;96854.13;5119949;27;41732;-83
2023/10/27 12:07:36;;;;;;;0.60;0.60;;;;;;;18.01;69.35;96867.66;5133559;27;42072;-86
2023/10/27 12:23:05;;;;;;;0.97;0.70;;;;;;;17.58;69.48;96867.56;5112341;27;42523;-88
2023/10/27 12:25:54;;;;;;;3.30;0.70;;;;;;;17.38;69.59;96866.50;5133696;27;41189;-87
2023/10/27 12:28:22;;;;;;;1.67;0.80;;;;;;;17.18;69.21;96881.47;5148446;27;41315;-87
2023/10/27 12:31:09;;;;;;;1.10;0.80;;;;;;;17.34;69.67;96859.84;5149794;27;40676;-87
2023/10/27 12:39:10;;;;;;;1.13;0.90;;;;;;;18.11;66.66;96889.59;5165338;27;42802;-87
2023/10/27 12:41:39;;;;;;;1.03;0.70;;;;;;;19.04;65.28;96877.78;5146919;27;41052;-87
2023/10/27 12:44:10;;;;;;;2.43;0.90;;;;;;;20.03;62.04;96899.72;5150175;27;42474;-87
2023/10/27 12:46:38;;;;;;;1.03;0.77;;;;;;;20.11;60.91;96893.34;5123025;27;42942;-86
2023/10/27 12:52:23;;;;;;;1.40;0.90;;;;;;;21.16;55.02;96894.19;5144100;27;39621;-89
2023/10/27 12:58:03;;;;;;;2.03;0.83;;;;;;;23.75;52.54;96916.56;5152263;27;43304;-89
2023/10/27 13:00:34;;;;;;;1.73;1.00;;;;;;;24.53;50.27;96908.47;5136466;27;43137;-90
2023/10/27 13:03:29;;;;;;;1.90;0.70;;;;;;;24.21;47.55;96947.63;5136594;27;38913;-87
2023/10/27 13:05:59;;;;;;;1.47;0.70;;;;;;;22.79;47.86;96929.75;5137012;27;41056;-90
2023/10/27 13:08:27;;;;;;;2.73;0.63;;;;;;;21.83;49.54;96952.25;5136266;27;42018;-90
2023/10/27 13:10:54;;;;;;;1.33;0.67;;;;;;;21.11;52.19;96945.16;5135661;27;41539;-88
2023/10/27 13:13:30;;;;;;;0.70;0.60;;;;;;;20.70;53.36;96917.63;5137139;27;39241;-90
2023/10/27 13:15:57;;;;;;;1.27;0.90;;;;;;;20.48;53.18;96913.47;5136812;27;42465;-91
2023/10/27 13:18:48;;;;;;;0.57;0.57;;;;;;;20.33;53.68;96919.84;5133867;27;43424;-87
2023/10/27 13:21:18;;;;;;;1.27;0.60;;;;;;;19.85;54.04;96896.78;5151214;27;42367;-91
2023/10/27 13:24:09;;;;;;;0.60;0.50;;;;;;;19.76;54.08;96888.09;5136963;27;42628;-89
2023/10/27 13:26:57;;;;;;;1.60;0.63;;;;;;;19.91;54.70;96906.69;5136067;27;41515;-89
2023/10/27 13:29:28;;;;;;;1.33;0.80;;;;;;;21.24;51.12;96905.81;5121026;27;43428;-90
2023/10/27 13:32:18;;;;;;;0.50;0.50;;;;;;;22.79;47.24;96930.59;5115175;27;41569;-89
2023/10/27 13:34:45;;;;;;;1.33;0.70;;;;;;;24.26;46.29;96967.53;5115833;27;39143;-91
2023/10/27 13:37:13;;;;;;;0.80;0.53;;;;;;;25.34;44.61;96993.66;5098055;27;42286;-87
2023/10/27 13:39:41;;;;;;;2.43;0.70;;;;;;;25.62;41.95;96979.41;5097697;27;43171;-88
2023/10/27 13:42:08;;;;;;;0.43;0.43;;;;;;;24.28;42.65;96954.63;5115210;27;41174;-88
2023/10/27 13:44:38;;;;;;;1.70;0.73;;;;;;;23.27;45.05;96974.00;5115307;27;41348;-89
2023/10/27 13:47:06;;;;;;;0.80;0.67;;;;;;;22.36;46.69;96968.22;5098283;27;40948;-89
2023/10/27 13:52:17;;;;;;;0.77;0.67;;;;;;;20.77;48.61;96964.22;5112213;27;41300;-90
2023/10/27 13:54:51;;;;;;;0.67;0.60;;;;;;;20.31;50.29;96951.47;5085747;28;38984;-89
2023/10/27 13:57:19;;;;;;;2.23;0.80;;;;;;;19.80;50.88;96944.88;5076594;28;41763;-88
2023/10/27 14:00:11;;;;;;;1.00;0.63;;;;;;;18.95;52.41;96874.44;5076397;28;44066;-88
2023/10/27 14:02:42;;;;;;;2.83;0.83;;;;;;;18.97;54.02;96934.06;5070834;28;43162;-88
2023/10/27 14:05:32;;;;;;;1.33;0.90;;;;;;;18.71;54.90;96933.88;5097084;27;40362;-89
2023/10/27 14:08:27;;;;;;;2.63;1.40;;;;;;;18.36;56.31;96897.22;5097211;27;41579;-90
2023/10/27 14:11:00;;;;;;;1.37;1.10;;;;;;;18.38;56.42;96908.59;5096422;27;43555;-90
2023/10/27 14:13:45;;;;;;;1.03;0.50;;;;;;;18.51;56.90;96922.94;5097285;27;43731;-90
2023/10/27 14:16:23;;;;;;;3.40;0.70;;;;;;;18.35;56.47;96914.34;5098009;27;39399;-90
2023/10/27 14:19:11;;;;;;;1.47;0.80;;;;;;;18.29;57.66;96935.53;5097705;27;42520;-88
2023/10/27 14:21:39;;;;;;;1.73;0.90;;;;;;;17.98;58.36;96910.88;5079916;27;43095;-90
2023/10/27 14:24:08;;;;;;;0.60;0.50;;;;;;;17.70;58.25;96893.84;5097981;27;43412;-90
2023/10/27 14:26:37;;;;;;;1.60;0.80;;;;;;;17.93;58.61;96940.06;5080539;27;39589;-89
2023/10/27 14:29:12;;;;;;;2.20;0.70;;;;;;;17.88;58.98;96934.44;5097285;27;42625;-89
2023/10/27 14:31:46;;;;;;;1.73;0.67;;;;;;;17.75;59.74;96899.50;5097981;27;42288;-89
2023/10/27 14:34:19;;;;;;;1.33;0.60;;;;;;;17.98;59.41;96944.84;5097681;27;41678;-90
2023/10/27 14:36:47;;;;;;;1.40;0.57;;;;;;;17.87;58.81;96916.72;5099285;27;40328;-88
2023/10/27 14:39:17;;;;;;;1.13;0.60;;;;;;;17.90;57.59;96919.03;5100901;27;40624;-92
2023/10/27 14:41:48;;;;;;;1.03;0.53;;;;;;;18.00;58.30;96967.75;5099798;27;42210;-90
2023/10/27 14:44:18;;;;;;;1.03;0.70;;;;;;;17.71;58.60;96952.56;5100105;27;41426;-90
2023/10/27 14:46:50;;;;;;;2.23;0.57;;;;;;;17.32;58.92;96909.19;5099844;27;39126;-89
2023/10/27 14:49:18;;;;;;;0.60;0.57;;;;;;;17.34;59.55;96939.28;5108702;27;42080;-88
2023/10/27 14:51:55;;;;;;;0.70;0.70;;;;;;;17.28;60.42;96937.34;5108954;27;43473;-90
2023/10/27 14:54:25;;;;;;;0.77;0.60;;;;;;;17.24;60.86;96958.28;5100637;27;43405;-90
2023/10/27 14:56:52;;;;;;;2.13;0.80;;;;;;;17.03;61.41;96945.66;5109905;27;39186;-87
2023/10/27 14:59:22;;;;;;;0.77;0.60;;;;;;;16.93;61.86;96953.09;5108537;27;41756;-90
2023/10/27 15:01:52;;;;;;;1.63;0.80;;;;;;;16.43;62.17;96898.41;5100259;27;43294;-86
2023/10/27 15:04:20;;;;;;;3.20;0.90;;;;;;;16.27;62.52;96890.53;5100058;27;42249;-89
2023/10/27 15:06:47;;;;;;;2.50;1.10;;;;;;;16.64;62.98;96953.88;5100114;27;39203;-88
2023/10/27 15:09:15;;;;;;;0.60;0.60;;;;;;;16.57;63.89;96936.84;5100464;27;40943;-88
2023/10/27 15:11:42;;;;;;;1.60;0.83;;;;;;;16.67;63.58;96942.00;5100224;27;41694;-90
2023/10/27 15:14:10;;;;;;;1.00;0.70;;;;;;;16.45;64.17;96907.03;5101565;27;41887;-90
2023/10/27 15:16:39;;;;;;;2.07;0.67;;;;;;;16.75;64.17;96960.63;5101211;27;38617;-90
2023/10/27 15:19:09;;;;;;;0.73;0.60;;;;;;;16.37;64.35;96900.94;5117995;27;42575;-90
2023/10/27 15:21:38;;;;;;;1.00;0.67;;;;;;;16.44;64.72;96941.97;5100616;27;42781;-90
2023/10/27 15:24:06;;;;;;;2.53;0.83;;;;;;;16.43;65.18;96961.69;5101563;27;41462;-90
2023/10/27 15:26:34;;;;;;;1.53;0.80;;;;;;;16.29;65.48;96955.28;5099583;27;42474;-90
2023/10/27 15:29:03;;;;;;;1.17;0.70;;;;;;;16.23;66.13;96955.13;5100394;27;41130;-92
2023/10/27 15:31:34;;;;;;;1.23;0.80;;;;;;;16.07;66.37;96940.09;5099536;27;43424;-91
2023/10/27 15:34:01;;;;;;;2.03;0.80;;;;;;;15.93;66.53;96940.84;5099724;27;43936;-89
2023/10/27 15:36:30;;;;;;;1.13;0.70;;;;;;;15.93;67.26;96949.66;5099687;27;38960;-90
2023/10/27 15:38:59;;;;;;;0.90;0.90;;;;;;;16.06;67.48;96955.28;5099881;27;41979;-91
2023/10/27 15:41:28;;;;;;;0.80;0.50;;;;;;;16.01;67.42;96946.13;5099417;27;44335;-91
2023/10/27 15:43:57;;;;;;;0.90;0.83;;;;;;;16.11;67.69;96966.22;5099892;27;41351;-90
2023/10/27 15:46:25;;;;;;;1.80;0.50;;;;;;;15.64;67.81;96894.28;5099608;27;39088;-90
2023/10/27 15:48:53;;;;;;;1.53;0.50;;;;;;;16.00;68.38;96955.97;5099575;27;43260;-87
2023/10/27 15:51:21;;;;;;;2.43;0.60;;;;;;;15.88;68.49;96961.88;5099329;27;43199;-90
2023/10/27 15:53:52;;;;;;;1.13;0.73;;;;;;;15.44;68.97;96919.72;5099250;27;41208;-91
2023/10/27 15:56:26;;;;;;;1.03;0.70;;;;;;;15.64;69.22;96965.50;5099925;27;39273;-91
2023/10/27 15:58:53;;;;;;;0.80;0.80;;;;;;;15.40;69.28;96945.88;5099427;27;41224;-91
2023/10/27 16:01:21;;;;;;;1.60;0.93;;;;;;;15.52;69.87;96973.00;5098996;27;44903;-91
2023/10/27 16:03:49;;;;;;;2.43;1.00;;;;;;;15.48;70.27;96977.03;5099781;27;41881;-90
2023/10/27 16:06:17;;;;;;;1.10;0.73;;;;;;;15.48;71.30;96989.53;5099160;27;39327;-89
2023/10/27 16:08:47;;;;;;;2.73;0.90;;;;;;;15.37;71.51;96990.72;5099414;27;41054;-89
2023/10/27 16:11:16;;;;;;;1.83;0.70;;;;;;;15.32;71.92;96993.94;5098950;27;41699;-89
2023/10/27 16:13:43;;;;;;;2.70;0.90;;;;;;;15.13;71.78;96975.63;5100095;27;42858;-90
2023/10/27 16:16:11;;;;;;;2.93;0.90;;;;;;;14.98;72.79;96966.66;5117308;27;40184;-91
2023/10/27 16:18:39;;;;;;;1.33;0.77;;;;;;;14.62;73.51;96926.25;5100475;27;42539;-92
2023/10/27 16:21:06;;;;;;;0.87;0.67;;;;;;;14.87;73.88;96991.00;5100399;27;41527;-90
2023/10/27 16:23:34;;;;;;;2.10;1.03;;;;;;;14.37;74.29;96931.53;5100445;27;42990;-90
2023/10/27 16:26:05;;;;;;;1.57;0.97;;;;;;;14.58;74.15;96988.84;5100210;27;40162;-91
2023/10/27 16:28:34;;;;;;;0.97;0.80;;;;;;;14.58;75.13;96989.69;5100329;27;42010;-90
2023/10/27 16:31:02;;;;;;;1.33;1.07;;;;;;;14.56;75.37;96991.69;5099865;27;43588;-90
2023/10/27 16:33:31;;;;;;;1.50;1.07;;;;;;;14.64;76.18;96998.84;5100001;27;41783;-90
2023/10/27 16:36:01;;;;;;;3.23;1.20;;;;;;;14.54;76.04;96982.19;5099870;27;40148;-90
2023/10/27 16:38:28;;;;;;;1.87;0.90;;;;;;;14.53;76.04;96994.66;5098573;27;40494;-88
2023/10/27 16:40:57;;;;;;;1.30;1.00;;;;;;;14.51;77.73;97009.16;5099106;27;44001;-89
2023/10/27 16:43:24;;;;;;;0.80;0.70;;;;;;;14.28;77.18;96977.81;5098932;27;41397;-89
2023/10/27 16:45:53;;;;;;;1.53;1.07;;;;;;;14.35;77.46;97002.78;5099349;27;38933;-90
2023/10/27 16:48:21;;;;;;;3.43;1.10;;;;;;;14.35;78.43;97004.59;5098825;27;43286;-89
2023/10/27 16:50:49;;;;;;;2.27;1.10;;;;;;;14.28;78.37;96999.13;5098979;27;42020;-88
2023/10/27 16:53:17;;;;;;;1.67;1.20;;;;;;;14.31;78.96;97019.25;5099979;27;41138;-90
2023/10/27 16:55:44;;;;;;;1.73;1.03;;;;;;;14.28;79.41;97017.75;5099662;27;38932;-89
2023/10/27 16:58:12;;;;;;;2.30;1.17;;;;;;;14.25;78.96;97017.22;5099131;27;41060;-89
2023/10/27 17:00:39;;;;;;;2.13;1.20;;;;;;;14.31;79.43;97035.22;5086518;28;43327;-88
2023/10/27 17:03:09;;;;;;;1.73;1.13;;;;;;;14.28;79.20;97030.22;5078217;28;41227;-87
2023/10/27 17:05:36;;;;;;;1.83;1.00;;;;;;;14.13;79.24;97022.03;5077809;28;40351;-87
2023/10/27 17:08:04;;;;;;;1.30;1.10;;;;;;;14.12;79.80;97041.66;5082486;28;42205;-87
2023/10/27 17:10:33;;;;;;;2.60;1.50;;;;;;;13.99;79.91;97033.31;5083734;28;42489;-88
2023/10/27 17:13:00;;;;;;;1.00;1.00;;;;;;;13.93;79.79;97040.13;5079342;28;40714;-88
2023/10/27 17:15:28;;;;;;;2.73;1.00;;;;;;;13.87;80.31;97030.09;5086939;27;40028;-89
2023/10/27 17:17:55;;;;;;;1.00;1.00;;;;;;;13.81;81.31;97029.94;5099071;27;40803;-88
2023/10/27 17:20:24;;;;;;;0.90;0.90;;;;;;;13.76;81.18;97035.72;5099257;27;42537;-88
2023/10/27 17:22:52;;;;;;;2.17;0.80;;;;;;;13.83;81.64;97052.72;5093980;27;42616;-88
2023/10/27 17:25:19;;;;;;;3.70;1.30;;;;;;;13.72;81.79;97046.84;5096418;27;39188;-89
2023/10/27 17:27:47;;;;;;;1.47;1.00;;;;;;;13.65;81.61;97055.47;5116144;27;41513;-89
2023/10/27 17:30:15;;;;;;;1.83;1.20;;;;;;;13.48;82.33;97035.09;5099164;27;44979;-92
2023/10/27 17:32:44;;;;;;;2.27;1.00;;;;;;;13.46;83.07;97028.28;5077803;28;42932;-91
2023/10/27 17:35:11;;;;;;;1.57;0.80;;;;;;;13.42;82.84;97053.50;5076654;28;40309;-89
2023/10/27 17:37:40;;;;;;;1.63;1.10;;;;;;;13.34;83.07;97062.28;5078062;28;41891;-90
2023/10/27 17:40:09;;;;;;;1.30;0.93;;;;;;;13.37;83.12;97055.78;5088040;27;44344;-91
2023/10/27 17:42:37;;;;;;;3.57;1.00;;;;;;;13.27;83.46;97043.44;5099403;28;42546;-89
2023/10/27 17:45:05;;;;;;;1.93;1.10;;;;;;;13.08;83.13;97035.66;5101912;27;38379;-89
2023/10/27 17:47:33;;;;;;;1.37;0.70;;;;;;;13.19;83.34;97062.00;5081175;28;42183;-89
2023/10/27 17:50:01;;;;;;;1.17;1.10;;;;;;;13.09;83.66;97058.59;5074097;28;41884;-86
2023/10/27 17:52:28;;;;;;;1.37;1.27;;;;;;;13.03;84.08;97061.03;5097508;27;41208;-89
2023/10/27 17:54:58;;;;;;;1.00;0.90;;;;;;;12.92;84.69;97056.78;5113130;27;39901;-86
2023/10/27 17:57:27;;;;;;;2.30;1.07;;;;;;;12.99;84.36;97071.13;5110793;27;41314;-85
2023/10/27 17:59:55;;;;;;;1.40;1.20;;;;;;;12.94;85.04;97070.75;5106561;27;41858;-90
2023/10/27 18:02:25;;;;;;;2.50;1.10;;;;;;;12.69;85.85;97045.81;5098935;27;43515;-89
2023/10/27 18:04:53;;;;;;;2.53;1.30;;;;;;;12.77;86.04;97060.97;5098565;27;41752;-88
2023/10/27 18:07:22;;;;;;;1.90;1.10;;;;;;;12.73;86.18;97052.50;5090939;28;43201;-90
2023/10/27 18:09:51;;;;;;;2.53;1.10;;;;;;;12.75;85.78;97060.28;5093952;28;41564;-90
2023/10/27 18:12:20;;;;;;;1.37;1.03;;;;;;;12.76;86.56;97069.94;5099446;27;43072;-90
2023/10/27 18:14:48;;;;;;;2.17;1.13;;;;;;;12.78;87.69;97066.13;5102078;27;39229;-91
2023/10/27 18:17:16;;;;;;;2.07;1.00;;;;;;;12.75;87.75;97060.28;5101319;27;42410;-89
2023/10/27 18:19:43;;;;;;;2.30;1.20;;;;;;;12.92;88.00;97088.66;5101957;27;41665;-89
2023/10/27 18:22:11;;;;;;;1.27;1.13;;;;;;;12.86;89.22;97078.66;5093705;28;43462;-87
2023/10/27 18:24:39;;;;;;;1.37;1.27;;;;;;;12.73;88.70;97062.28;5098802;28;40078;-89
2023/10/27 18:27:07;;;;;;;1.83;1.13;;;;;;;12.93;89.03;97090.34;5084437;27;41994;-88
2023/10/27 18:29:38;;;;;;;2.30;1.20;;;;;;;12.88;88.51;97076.66;5100427;27;42076;-88
2023/10/27 18:32:07;;;;;;;2.30;1.27;;;;;;;12.81;88.02;97054.38;5097103;27;41970;-91
2023/10/27 18:34:35;;;;;;;1.13;1.03;;;;;;;12.90;87.69;97086.16;5088051;27;40258;-89
2023/10/27 18:37:03;;;;;;;2.40;1.27;;;;;;;12.79;88.15;97067.81;5097955;27;41454;-91
2023/10/27 18:39:31;;;;;;;1.30;1.20;;;;;;;12.84;88.36;97081.47;5097850;27;43318;-89
2023/10/27 18:41:58;;;;;;;1.57;1.10;;;;;;;12.81;89.04;97073.81;5101790;27;41365;-90
2023/10/27 18:44:26;;;;;;;4.60;1.30;;;;;;;12.77;89.53;97076.91;5101392;27;40452;-89
2023/10/27 18:46:56;;;;;;;1.87;1.30;;;;;;;12.67;89.54;97057.56;5115667;27;41861;-90
2023/10/27 18:49:23;;;;;;;2.03;1.07;;;;;;;12.65;90.24;97076.31;5098800;27;41813;-88
2023/10/27 18:51:51;;;;;;;1.43;0.90;;;;;;;12.57;90.95;97071.78;5098327;27;42270;-88
2023/10/27 18:54:19;;;;;;;2.00;1.23;;;;;;;12.54;90.66;97074.72;5101911;27;40171;-89
2023/10/27 18:56:48;;;;;;;1.73;1.30;;;;;;;12.33;91.03;97054.78;5097680;27;42434;-89
2023/10/27 18:59:16;;;;;;;1.43;1.10;;;;;;;12.43;91.33;97074.94;5081791;28;43368;-91
2023/10/27 19:01:44;;;;;;;2.30;1.17;;;;;;;12.42;91.00;97075.09;5081074;27;41055;-89
2023/10/27 19:04:13;;;;;;;1.30;1.20;;;;;;;12.38;90.94;97079.88;5079986;28;39228;-90
2023/10/27 19:06:40;;;;;;;1.47;1.10;;;;;;;12.43;91.02;97090.88;5091231;27;43236;-88
2023/10/27 19:09:08;;;;;;;2.37;1.30;;;;;;;12.28;91.18;97076.44;5098587;27;42272;-91
2023/10/27 19:11:36;;;;;;;1.93;1.37;;;;;;;12.31;91.36;97081.47;5081042;27;42224;-91
2023/10/27 19:14:04;;;;;;;1.83;1.40;;;;;;;12.37;92.10;97090.63;5107871;27;40924;-86
2023/10/27 19:16:34;;;;;;;1.53;1.30;;;;;;;12.26;92.15;97091.69;5110024;27;42266;-86
2023/10/27 19:19:01;;;;;;;2.00;1.10;;;;;;;12.27;92.95;97098.66;5111456;27;42668;-86
2023/10/27 19:21:32;;;;;;;1.57;1.30;;;;;;;12.32;92.87;97109.69;5112041;27;42175;-89
2023/10/27 19:24:00;;;;;;;1.80;1.10;;;;;;;12.34;92.81;97113.03;5108016;28;40616;-89
2023/10/27 19:26:28;;;;;;;3.80;1.27;;;;;;;12.24;92.07;97101.59;5109893;27;42390;-87
2023/10/27 19:28:57;;;;;;;1.63;1.00;;;;;;;12.33;91.69;97108.69;5100791;28;41984;-87
2023/10/27 19:31:26;;;;;;;1.23;0.93;;;;;;;12.29;91.68;97112.63;5098571;27;43476;-90
2023/10/27 19:33:55;;;;;;;1.60;1.50;;;;;;;12.24;91.85;97120.19;5115352;28;40032;-90
2023/10/27 19:36:24;;;;;;;2.87;1.10;;;;;;;12.06;92.23;97101.59;5101705;27;40336;-87
2023/10/27 19:38:54;;;;;;;1.33;1.00;;;;;;;12.13;92.16;97120.38;5079819;28;43257;-91
2023/10/27 19:41:24;;;;;;;1.43;1.30;;;;;;;11.97;92.18;97106.94;5078272;28;42273;-90
2023/10/27 19:43:52;;;;;;;2.17;1.43;;;;;;;12.01;92.34;97130.38;5095744;28;38685;-87
2023/10/27 19:46:20;;;;;;;2.47;1.40;;;;;;;11.85;92.22;97104.50;5080408;28;40826;-88
2023/10/27 19:48:48;;;;;;;1.33;1.20;;;;;;;11.83;92.31;97109.09;5079138;28;43591;-89
2023/10/27 19:51:16;;;;;;;1.20;1.10;;;;;;;11.81;92.37;97120.81;5079637;28;41088;-91
2023/10/27 19:53:45;;;;;;;2.27;1.30;;;;;;;11.73;92.69;97116.22;5079331;28;40089;-90
2023/10/27 19:56:15;;;;;;;1.30;1.20;;;;;;;11.59;92.46;97103.44;5078523;28;40959;-91
2023/10/27 19:58:44;;;;;;;3.47;1.77;;;;;;;11.79;92.93;97130.75;5079592;28;43650;-88
2023/10/27 20:01:13;;;;;;;1.47;1.37;;;;;;;11.66;92.84;97115.13;5078915;28;43496;-90
2023/10/27 20:03:41;;;;;;;1.30;1.10;;;;;;;11.55;92.65;97096.75;5094400;28;40374;-90
2023/10/27 20:06:08;;;;;;;1.97;1.37;;;;;;;11.73;94.12;97126.00;5096664;27;40740;-90
2023/10/27 20:08:37;;;;;;;2.13;1.40;;;;;;;11.74;94.40;97133.81;5099346;27;43121;-91
2023/10/27 20:11:11;;;;;;;3.50;1.40;;;;;;;11.70;94.19;97120.97;5083397;27;41077;-89
2023/10/27 20:13:43;;;;;;;1.40;1.30;;;;;;;11.67;94.01;97111.50;5100677;27;39086;-90
2023/10/27 20:16:12;;;;;;;1.47;1.37;;;;;;;11.62;93.93;97095.19;5099499;27;40805;-89
2023/10/27 20:18:39;;;;;;;2.53;1.57;;;;;;;11.56;93.81;97087.81;5100471;27;41412;-89
2023/10/27 20:21:08;;;;;;;2.67;1.50;;;;;;;11.67;93.70;97108.84;5100029;27;42742;-88
2023/10/27 20:23:37;;;;;;;1.50;1.40;;;;;;;11.64;94.21;97111.78;5099527;27;41244;-89
2023/10/27 20:26:05;;;;;;;1.63;1.23;;;;;;;11.64;93.99;97119.72;5099476;27;41678;-90
2023/10/27 20:28:33;;;;;;;1.63;1.53;;;;;;;11.61;93.75;97120.03;5096928;27;41938;-89
2023/10/27 20:31:03;;;;;;;2.43;1.60;;;;;;;11.55;94.53;97114.47;5096918;27;41327;-88
2023/10/27 20:33:30;;;;;;;3.23;1.70;;;;;;;11.46;94.46;97103.75;5096862;27;41601;-89
2023/10/27 20:35:58;;;;;;;1.90;1.63;;;;;;;11.54;94.74;97118.94;5098133;27;41266;-89
2023/10/27 20:38:25;;;;;;;2.30;1.80;;;;;;;11.63;94.67;97138.44;5097121;27;42890;-88
2023/10/27 20:40:53;;;;;;;3.63;1.90;;;;;;;11.61;95.09;97141.25;5119725;27;42195;-90
2023/10/27 20:43:20;;;;;;;3.73;2.10;;;;;;;11.64;94.90;97148.91;5089813;27;38929;-88
2023/10/27 20:45:48;;;;;;;2.53;2.00;;;;;;;11.67;94.62;97150.44;5091014;27;40550;-90
2023/10/27 20:48:17;;;;;;;3.87;1.67;;;;;;;11.73;94.82;97150.72;5120400;27;43154;-86
2023/10/27 20:50:45;;;;;;;1.53;1.43;;;;;;;11.77;94.64;97143.31;5115115;27;41327;-88
2023/10/27 20:53:12;;;;;;;2.50;1.87;;;;;;;11.74;94.59;97133.81;5096184;27;38994;-89
2023/10/27 20:55:40;;;;;;;1.77;1.60;;;;;;;11.66;94.56;97104.53;5081796;27;40681;-89
2023/10/27 20:58:09;;;;;;;3.17;1.63;;;;;;;11.69;95.47;97106.88;5090909;28;41738;-87
2023/10/27 21:00:36;;;;;;;2.47;1.70;;;;;;;11.77;95.53;97128.22;5078985;28;41646;-87
2023/10/27 21:03:04;;;;;;;5.17;1.83;;;;;;;11.76;95.99;97131.03;5079999;27;38912;-89
2023/10/27 21:05:34;;;;;;;3.13;2.30;;;;;;;11.75;95.84;97140.78;5092254;27;40724;-87
2023/10/27 21:08:02;;;;;;;2.20;1.40;;;;;;;11.85;95.92;97151.38;5082467;27;42996;-89
2023/10/27 21:10:31;;;;;;;4.30;1.67;;;;;;;11.73;95.73;97141.91;5097714;27;43196;-88
2023/10/27 21:12:59;;;;;;;1.77;1.60;;;;;;;11.73;96.86;97134.78;5097155;27;38719;-87
2023/10/27 21:15:26;;;;;;;2.37;1.77;;;;;;;11.72;96.42;97141.06;5100002;27;41017;-90
2023/10/27 21:17:54;;;;;;;1.90;1.43;;;;;;;11.67;96.23;97132.72;5100769;27;42104;-89
2023/10/27 21:20:21;;;;;;;2.97;1.70;;;;;;;11.71;95.95;97154.47;5101548;27;43124;-89
2023/10/27 21:22:52;;;;;;;1.47;1.37;;;;;;;11.71;96.00;97152.66;5088653;28;39213;-87
2023/10/27 21:25:22;;;;;;;2.33;1.63;;;;;;;11.64;96.11;97138.28;5094335;27;43438;-88
2023/10/27 21:27:49;;;;;;;1.80;1.70;;;;;;;11.73;95.84;97148.06;5110724;27;44599;-88
2023/10/27 21:30:17;;;;;;;2.13;1.50;;;;;;;11.59;95.66;97129.94;5118566;27;41318;-91
2023/10/27 21:32:44;;;;;;;2.33;1.67;;;;;;;11.72;95.67;97146.38;5119609;27;41231;-88
2023/10/27 21:35:12;;;;;;;2.47;1.73;;;;;;;11.62;95.75;97137.59;5119703;27;42219;-88
2023/10/27 21:37:40;;;;;;;2.60;1.70;;;;;;;11.59;95.66;97137.91;5119472;27;41235;-91
2023/10/27 21:40:12;;;;;;;2.60;1.63;;;;;;;11.60;95.51;97136.09;5119456;27;42177;-87
2023/10/27 21:42:40;;;;;;;2.93;1.63;;;;;;;11.61;95.25;97143.06;5120655;27;40758;-88
2023/10/27 21:45:08;;;;;;;1.57;1.47;;;;;;;11.46;95.32;97122.31;5117306;27;42228;-90
2023/10/27 21:47:36;;;;;;;2.83;1.77;;;;;;;11.65;95.22;97153.22;5118134;27;43482;-91
2023/10/27 21:50:05;;;;;;;1.67;1.57;;;;;;;11.62;95.21;97147.41;5119808;27;44172;-88
2023/10/27 21:52:33;;;;;;;2.03;1.60;;;;;;;11.67;94.95;97142.47;5118018;27;40384;-89
2023/10/27 21:55:00;;;;;;;2.40;1.93;;;;;;;11.74;94.62;97155.03;5121187;27;40614;-88
2023/10/27 21:57:29;;;;;;;2.13;1.57;;;;;;;11.86;94.60;97167.16;5120799;27;44246;-89
2023/10/27 21:59:57;;;;;;;2.30;1.57;;;;;;;11.88;94.51;97162.53;5119476;27;41296;-88
2023/10/27 22:02:24;;;;;;;2.60;1.43;;;;;;;11.98;94.29;97172.28;5117991;27;38757;-89
2023/10/27 22:04:52;;;;;;;2.00;1.20;;;;;;;11.86;94.24;97151.25;5118295;27;40698;-88
2023/10/27 22:07:20;;;;;;;2.07;1.30;;;;;;;11.98;94.72;97156.38;5117930;27;44708;-89
2023/10/27 22:09:48;;;;;;;4.13;1.50;;;;;;;11.98;95.59;97164.31;5118528;27;42857;-91
2023/10/27 22:12:16;;;;;;;1.77;1.13;;;;;;;11.86;95.47;97150.41;5118282;27;40367;-90
2023/10/27 22:14:45;;;;;;;1.80;1.60;;;;;;;12.06;95.47;97180.34;5119420;27;42408;-89
2023/10/27 22:17:13;;;;;;;1.50;1.03;;;;;;;11.94;95.57;97144.38;5118995;27;44468;-88
2023/10/27 22:19:40;;;;;;;2.47;1.20;;;;;;;12.05;95.70;97170.72;5119096;27;43207;-90
2023/10/27 22:22:08;;;;;;;1.43;1.20;;;;;;;11.95;96.08;97154.84;5119032;27;40616;-89
2023/10/27 22:24:35;;;;;;;1.23;1.03;;;;;;;12.05;95.60;97163.59;5120119;27;41829;-91